createdAt,value
2022-08-07T00:01:44.205Z,2.30
2022-08-07T00:04:06.145Z,2.30
2022-08-07T00:06:36.457Z,2.20
2022-08-07T00:09:16.624Z,2.20
2022-08-07T00:11:55.477Z,2.40
2022-08-07T00:14:25.392Z,2.45
2022-08-07T00:17:01.666Z,2.85
2022-08-07T00:19:59.917Z,2.45
2022-08-07T00:22:24.611Z,2.80
2022-08-07T00:25:15.800Z,2.97
2022-08-07T00:27:52.760Z,3.00
2022-08-07T00:30:26.423Z,2.67
2022-08-07T00:33:00.108Z,2.83
2022-08-07T00:35:29.706Z,3.22
2022-08-07T00:37:56.959Z,3.00
2022-08-07T00:40:36.978Z,3.30
2022-08-07T00:43:09.801Z,3.05
2022-08-07T00:45:39.006Z,3.50
2022-08-07T00:48:09.867Z,3.47
2022-08-07T00:50:51.120Z,3.47
2022-08-07T00:53:20.443Z,3.60
2022-08-07T00:56:02.484Z,3.42
2022-08-07T00:58:30.952Z,3.35
2022-08-07T01:00:58.932Z,3.30
2022-08-07T01:03:56.659Z,3.50
2022-08-07T01:06:13.651Z,2.95
2022-08-07T01:08:53.538Z,3.17
2022-08-07T01:12:10.099Z,3.05
2022-08-07T01:14:10.035Z,3.35
2022-08-07T01:16:37.721Z,3.38
2022-08-07T01:19:18.333Z,3.30
2022-08-07T01:21:49.408Z,3.47
2022-08-07T01:24:22.435Z,3.13
2022-08-07T01:26:54.174Z,3.60
2022-08-07T01:29:24.242Z,2.88
2022-08-07T01:31:55.954Z,3.40
2022-08-07T01:34:30.956Z,3.38
2022-08-07T01:37:01.219Z,3.28
2022-08-07T01:39:40.534Z,3.60
2022-08-07T01:42:38.454Z,3.90
2022-08-07T01:45:18.219Z,3.30
2022-08-07T01:48:19.231Z,3.38
2022-08-07T01:50:43.165Z,3.45
2022-08-07T01:53:21.799Z,3.50
2022-08-07T01:56:10.371Z,3.50
2022-08-07T01:58:50.671Z,3.60
2022-08-07T02:02:01.671Z,3.70
2022-08-07T02:04:26.650Z,3.33
2022-08-07T02:06:59.365Z,3.50
2022-08-07T02:09:33.735Z,4.05
2022-08-07T02:12:18.295Z,3.60
2022-08-07T02:14:53.259Z,3.47
2022-08-07T02:17:34.137Z,3.65
2022-08-07T02:20:09.628Z,3.65
2022-08-07T02:22:47.204Z,3.75
2022-08-07T02:26:11.362Z,3.50
2022-08-07T02:28:14.131Z,3.80
2022-08-07T02:30:53.796Z,3.70
2022-08-07T02:33:23.168Z,3.53
2022-08-07T02:36:30.820Z,3.60
2022-08-07T02:38:40.180Z,3.75
2022-08-07T02:41:21.886Z,3.75
2022-08-07T02:43:52.390Z,3.47
2022-08-07T02:46:25.785Z,3.72
2022-08-07T02:48:54.703Z,3.55
2022-08-07T02:51:41.691Z,3.67
2022-08-07T02:54:15.203Z,3.95
2022-08-07T02:56:43.989Z,3.85
2022-08-07T02:59:18.785Z,4.10
2022-08-07T03:01:52.275Z,4.18
2022-08-07T03:04:24.334Z,4.10
2022-08-07T03:06:53.057Z,3.95
2022-08-07T03:09:43.199Z,3.80
2022-08-07T03:12:21.981Z,4.30
2022-08-07T03:14:56.292Z,4.40
2022-08-07T03:17:24.334Z,4.10
2022-08-07T03:19:55.546Z,4.30
2022-08-07T03:22:29.379Z,4.00
2022-08-07T03:24:59.934Z,3.78
2022-08-07T03:27:59.412Z,4.40
2022-08-07T03:30:18.636Z,3.97
2022-08-07T03:32:59.204Z,4.18
2022-08-07T03:35:38.014Z,4.25
2022-08-07T03:38:13.492Z,4.40
2022-08-07T03:40:44.277Z,4.17
2022-08-07T03:43:15.336Z,4.13
2022-08-07T03:45:48.832Z,4.10
2022-08-07T03:48:21.487Z,3.97
2022-08-07T03:50:55.651Z,4.10
2022-08-07T03:53:50.096Z,4.20
2022-08-07T03:56:18.679Z,4.43
2022-08-07T03:59:08.009Z,4.30
2022-08-07T04:01:46.887Z,4.80
2022-08-07T04:04:18.305Z,4.75
2022-08-07T04:06:50.833Z,4.78
2022-08-07T04:09:23.297Z,4.72
2022-08-07T04:12:24.399Z,4.93
2022-08-07T04:14:43.669Z,4.93
2022-08-07T04:17:20.320Z,4.70
2022-08-07T04:19:52.667Z,4.40
2022-08-07T04:22:28.741Z,4.60
2022-08-07T04:25:01.652Z,5.25
2022-08-07T04:27:36.273Z,5.22
2022-08-07T04:30:36.034Z,4.68
2022-08-07T04:33:15.792Z,5.03
2022-08-07T04:35:50.249Z,4.65
2022-08-07T04:38:20.626Z,4.50
2022-08-07T04:40:51.697Z,4.40
2022-08-07T04:44:12.566Z,4.63
2022-08-07T04:46:35.896Z,4.95
2022-08-07T04:49:24.660Z,5.18
2022-08-07T04:52:08.921Z,5.10
2022-08-07T04:54:40.408Z,5.38
2022-08-07T04:58:10.523Z,4.85
2022-08-07T05:00:17.449Z,5.47
2022-08-07T05:03:17.203Z,5.43
2022-08-07T05:06:19.688Z,5.00
2022-08-07T05:09:43.041Z,5.32
2022-08-07T05:12:15.582Z,5.30
2022-08-07T05:15:04.173Z,5.35
2022-08-07T05:17:51.569Z,6.13
2022-08-07T05:20:31.796Z,4.93
2022-08-07T05:23:04.370Z,4.88
2022-08-07T05:25:36.631Z,5.30
2022-08-07T05:28:23.381Z,4.93
2022-08-07T05:30:56.957Z,4.90
2022-08-07T05:33:28.435Z,5.05
2022-08-07T05:35:56.911Z,4.88
2022-08-07T05:38:59.437Z,5.25
2022-08-07T05:41:17.006Z,5.38
2022-08-07T05:44:12.071Z,5.07
2022-08-07T05:46:38.463Z,4.80
2022-08-07T05:49:12.126Z,4.78
2022-08-07T05:51:46.277Z,4.63
2022-08-07T05:54:30.623Z,4.65
2022-08-07T05:57:03.501Z,4.30
2022-08-07T05:59:39.028Z,4.95
2022-08-07T06:02:29.209Z,4.85
2022-08-07T06:05:06.562Z,4.83
2022-08-07T06:08:14.682Z,4.53
2022-08-07T06:10:24.355Z,4.80
2022-08-07T06:12:51.495Z,4.60
2022-08-07T06:15:20.419Z,4.47
2022-08-07T06:17:53.635Z,4.40
2022-08-07T06:20:49.889Z,3.95
2022-08-07T06:23:46.338Z,3.72
2022-08-07T06:26:02.212Z,3.67
2022-08-07T06:28:30.596Z,3.70
2022-08-07T06:30:58.693Z,3.60
2022-08-07T06:33:27.452Z,3.73
2022-08-07T06:36:11.983Z,3.53
2022-08-07T06:38:58.716Z,3.45
2022-08-07T06:42:02.510Z,3.40
2022-08-07T06:44:51.603Z,3.10
2022-08-07T06:47:21.086Z,3.13
2022-08-07T06:49:51.949Z,2.90
2022-08-07T06:52:35.586Z,2.97
2022-08-07T06:55:34.247Z,3.08
2022-08-07T06:58:10.426Z,3.20
2022-08-07T07:00:46.845Z,3.10
2022-08-07T07:03:26.328Z,3.03
2022-08-07T07:06:11.067Z,3.08
2022-08-07T07:08:39.959Z,2.90
2022-08-07T07:12:08.579Z,2.78
2022-08-07T07:14:03.987Z,2.90
2022-08-07T07:16:49.749Z,2.80
2022-08-07T07:19:55.463Z,2.53
2022-08-07T07:22:33.862Z,2.30
2022-08-07T07:25:14.153Z,2.20
2022-08-07T07:28:29.618Z,2.17
2022-08-07T07:31:04.792Z,2.30
2022-08-07T07:33:36.016Z,1.92
2022-08-07T07:36:12.521Z,2.55
2022-08-07T07:38:45.953Z,2.17
2022-08-07T07:41:17.692Z,2.10
2022-08-07T07:44:16.810Z,2.33
2022-08-07T07:46:54.478Z,2.20
2022-08-07T07:50:34.008Z,2.10
2022-08-07T07:52:17.143Z,2.10
2022-08-07T07:54:50.771Z,1.87
2022-08-07T07:57:53.385Z,1.95
2022-08-07T08:00:09.528Z,1.70
2022-08-07T08:03:01.009Z,1.80
2022-08-07T08:05:42.820Z,1.90
2022-08-07T08:08:35.669Z,1.70
2022-08-07T08:11:16.309Z,1.90
2022-08-07T08:13:58.119Z,2.10
2022-08-07T08:16:35.028Z,2.10
2022-08-07T08:19:09.867Z,1.80
2022-08-07T08:22:07.906Z,2.08
2022-08-07T08:25:24.907Z,1.90
2022-08-07T08:28:04.564Z,1.80
2022-08-07T08:30:34.946Z,2.13
2022-08-07T08:33:16.855Z,1.92
2022-08-07T08:35:50.891Z,1.98
2022-08-07T08:38:20.802Z,1.73
2022-08-07T08:41:05.569Z,2.10
2022-08-07T08:43:56.056Z,2.00
2022-08-07T08:46:54.783Z,2.10
2022-08-07T08:49:33.364Z,1.92
2022-08-07T08:52:16.853Z,1.80
2022-08-07T08:55:54.414Z,1.80
2022-08-07T08:58:28.879Z,1.90
2022-08-07T09:01:29.994Z,1.70
2022-08-07T09:04:13.390Z,2.10
2022-08-07T09:07:16.839Z,2.20
2022-08-07T09:10:14.143Z,1.87
2022-08-07T09:12:59.517Z,1.60
2022-08-07T09:16:24.120Z,1.90
2022-08-07T09:18:58.370Z,1.75
2022-08-07T09:21:58.232Z,1.80
2022-08-07T09:24:30.792Z,1.52
2022-08-07T09:27:17.269Z,1.50
2022-08-07T09:30:06.179Z,1.70
2022-08-07T09:32:56.700Z,1.70
2022-08-07T09:36:03.403Z,1.50
2022-08-07T09:38:50.270Z,1.50
2022-08-07T09:42:02.973Z,1.80
2022-08-07T09:47:50.041Z,1.75
2022-08-07T09:48:00.000Z,1.50
2022-08-07T09:50:48.380Z,1.40
2022-08-07T09:53:22.440Z,1.50
2022-08-07T09:56:19.704Z,1.60
2022-08-07T09:59:21.611Z,1.40
2022-08-07T10:02:06.512Z,1.30
2022-08-07T10:04:57.133Z,1.42
2022-08-07T10:07:39.672Z,1.23
2022-08-07T10:11:07.597Z,1.20
2022-08-07T10:14:01.847Z,1.50
2022-08-07T10:17:00.884Z,1.45
2022-08-07T10:19:46.411Z,1.40
2022-08-07T10:22:43.123Z,1.48
2022-08-07T10:25:42.201Z,1.48
2022-08-07T10:28:32.888Z,1.30
2022-08-07T10:31:15.091Z,1.40
2022-08-07T10:34:15.315Z,1.20
2022-08-07T10:37:13.939Z,1.50
2022-08-07T10:40:12.634Z,1.30
2022-08-07T10:43:01.515Z,1.30
2022-08-07T10:45:45.219Z,1.40
2022-08-07T10:49:14.726Z,1.30
2022-08-07T10:52:02.266Z,1.30
2022-08-07T10:54:45.100Z,1.30
2022-08-07T10:57:56.020Z,1.40
2022-08-07T11:00:36.340Z,1.40
2022-08-07T11:03:13.319Z,1.30
2022-08-07T11:05:54.742Z,1.70
2022-08-07T11:08:54.280Z,1.50
2022-08-07T11:11:29.624Z,1.55
2022-08-07T11:14:44.103Z,1.40
2022-08-07T11:17:09.036Z,1.40
2022-08-07T11:19:59.823Z,1.63
2022-08-07T11:22:45.529Z,1.50
2022-08-07T11:25:24.955Z,1.65
2022-08-07T11:28:06.658Z,1.70
2022-08-07T11:31:01.730Z,1.70
2022-08-07T11:33:59.394Z,1.75
2022-08-07T11:36:33.668Z,1.90
2022-08-07T11:39:19.691Z,1.60
2022-08-07T11:42:16.815Z,1.48
2022-08-07T11:44:58.626Z,1.63
2022-08-07T11:47:38.900Z,1.63
2022-08-07T11:50:57.268Z,1.85
2022-08-07T11:54:00.260Z,1.50
2022-08-07T11:56:59.369Z,1.83
2022-08-07T12:00:11.412Z,2.05
2022-08-07T12:02:52.060Z,1.50
2022-08-07T12:05:58.352Z,1.60
2022-08-07T12:08:45.633Z,1.40
2022-08-07T12:11:43.473Z,1.50
2022-08-07T12:14:32.895Z,1.58
2022-08-07T12:17:19.843Z,1.20
2022-08-07T12:20:30.427Z,1.10
2022-08-07T12:23:14.412Z,1.02
2022-08-07T12:26:22.835Z,1.10
2022-08-07T12:29:05.885Z,1.20
2022-08-07T12:32:01.817Z,1.30
2022-08-07T12:34:35.971Z,1.23
2022-08-07T12:37:08.684Z,1.30
2022-08-07T12:39:50.912Z,1.20
2022-08-07T12:42:27.797Z,1.20
2022-08-07T12:44:58.430Z,1.20
2022-08-07T12:47:54.103Z,1.33
2022-08-07T12:50:54.805Z,1.27
2022-08-07T12:54:24.098Z,1.27
2022-08-07T12:56:35.943Z,1.30
2022-08-07T12:59:08.113Z,1.20
2022-08-07T13:02:09.652Z,1.50
2022-08-07T13:05:14.898Z,1.10
2022-08-07T13:08:33.885Z,1.30
2022-08-07T13:11:21.318Z,1.20
2022-08-07T13:13:57.773Z,1.35
2022-08-07T13:16:51.746Z,1.30
2022-08-07T13:19:45.921Z,1.23
2022-08-07T13:22:27.663Z,1.50
2022-08-07T13:24:57.510Z,1.30
2022-08-07T13:28:10.620Z,1.30
2022-08-07T13:30:41.171Z,1.50
2022-08-07T13:34:30.926Z,1.58
2022-08-07T13:36:43.409Z,1.30
2022-08-07T13:39:28.488Z,1.27
2022-08-07T13:42:10.502Z,1.50
2022-08-07T13:44:39.665Z,1.30
2022-08-07T13:47:15.733Z,1.40
2022-08-07T13:50:34.580Z,1.70
2022-08-07T13:52:44.586Z,1.90
2022-08-07T13:55:19.173Z,1.83
2022-08-07T13:58:01.695Z,1.83
2022-08-07T14:00:39.551Z,2.40
2022-08-07T14:03:29.154Z,2.05
2022-08-07T14:06:09.404Z,2.20
2022-08-07T14:08:53.709Z,2.13
2022-08-07T14:11:23.524Z,2.50
2022-08-07T14:14:01.869Z,2.60
2022-08-07T14:16:34.220Z,2.30
2022-08-07T14:19:11.254Z,2.40
2022-08-07T14:22:03.902Z,2.40
2022-08-07T14:24:46.825Z,2.33
2022-08-07T14:28:12.615Z,2.67
2022-08-07T14:30:11.072Z,2.50
2022-08-07T14:32:48.112Z,2.67
2022-08-07T14:35:45.073Z,3.00
2022-08-07T14:38:26.400Z,2.40
2022-08-07T14:41:02.217Z,2.53
2022-08-07T14:43:59.470Z,2.75
2022-08-07T14:46:31.543Z,2.90
2022-08-07T14:49:56.086Z,2.93
2022-08-07T14:52:04.700Z,2.90
2022-08-07T14:54:41.735Z,2.95
2022-08-07T14:57:19.266Z,2.97
2022-08-07T15:02:39.036Z,2.92
2022-08-07T15:05:20.373Z,3.30
2022-08-07T15:16:31.233Z,3.00
2022-08-07T15:19:02.628Z,2.90
2022-08-07T15:21:44.368Z,2.65
2022-08-07T15:25:12.959Z,2.38
2022-08-07T15:27:22.387Z,2.42
2022-08-07T15:30:06.934Z,2.10
2022-08-07T15:33:01.492Z,2.20
2022-08-07T15:36:00.450Z,2.53
2022-08-07T15:38:32.985Z,2.35
2022-08-07T15:41:24.278Z,2.17
2022-08-07T15:44:12.408Z,2.30
2022-08-07T15:46:51.691Z,2.30
2022-08-07T15:52:30.713Z,2.00
2022-08-07T15:55:03.440Z,2.33
2022-08-07T15:57:48.072Z,1.90
2022-08-07T16:00:32.031Z,2.13
2022-08-07T16:03:46.442Z,1.90
2022-08-07T16:06:10.357Z,2.10
2022-08-07T16:08:41.799Z,2.10
2022-08-07T16:11:28.818Z,2.20
2022-08-07T16:14:12.936Z,2.03
2022-08-07T16:16:49.221Z,2.05
2022-08-07T16:19:59.793Z,2.10
2022-08-07T16:22:33.354Z,2.20
2022-08-07T16:25:54.141Z,2.20
2022-08-07T16:30:07.832Z,2.20
2022-08-07T16:31:57.728Z,2.30
2022-08-07T16:34:41.893Z,2.03
2022-08-07T16:38:05.477Z,2.17
2022-08-07T16:40:11.623Z,2.17
2022-08-07T16:44:02.624Z,2.28
2022-08-07T16:47:02.916Z,2.20
2022-08-07T16:50:28.730Z,1.90
2022-08-07T16:52:51.990Z,1.92
2022-08-07T16:55:47.159Z,2.08
2022-08-07T16:59:10.045Z,2.00
2022-08-07T17:01:49.563Z,2.20
2022-08-07T17:04:29.644Z,2.03
2022-08-07T17:07:08.451Z,1.80
2022-08-07T17:10:06.053Z,2.50
2022-08-07T17:13:17.255Z,2.25
2022-08-07T17:15:52.865Z,1.70
2022-08-07T17:18:39.487Z,2.07
2022-08-07T17:21:18.817Z,1.98
2022-08-07T17:24:02.024Z,2.00
2022-08-07T17:26:51.169Z,2.10
2022-08-07T17:30:14.489Z,2.28
2022-08-07T17:32:59.335Z,2.00
2022-08-07T17:35:54.899Z,2.13
2022-08-07T17:38:35.196Z,1.92
2022-08-07T17:42:02.257Z,1.85
2022-08-07T17:44:35.048Z,2.00
2022-08-07T17:47:08.567Z,2.10
2022-08-07T17:49:44.974Z,2.05
2022-08-07T17:52:39.750Z,2.08
2022-08-07T17:55:14.435Z,1.95
2022-08-07T17:58:07.191Z,2.20
2022-08-07T18:00:49.338Z,2.00
2022-08-07T18:04:03.887Z,2.30
2022-08-07T18:06:38.637Z,2.23
2022-08-07T18:09:08.739Z,2.40
2022-08-07T18:12:07.067Z,2.35
2022-08-07T18:14:46.367Z,2.50
2022-08-07T18:18:45.095Z,2.60
2022-08-07T18:21:07.958Z,2.40
2022-08-07T18:23:43.689Z,2.40
2022-08-07T18:26:27.782Z,2.50
2022-08-07T18:30:05.887Z,2.60
2022-08-07T18:32:16.911Z,2.47
2022-08-07T18:35:17.775Z,2.33
2022-08-07T18:38:55.492Z,2.53
2022-08-07T18:41:09.213Z,2.15
2022-08-07T18:44:00.226Z,2.40
2022-08-07T18:46:33.329Z,2.90
2022-08-07T18:50:19.276Z,2.30
2022-08-07T18:52:54.022Z,2.33
2022-08-07T18:55:58.205Z,2.40
2022-08-07T18:58:52.469Z,2.50
2022-08-07T19:02:20.159Z,2.57
2022-08-07T19:04:56.166Z,2.60
2022-08-07T19:07:51.605Z,2.35
2022-08-07T19:10:31.114Z,2.65
2022-08-07T19:13:11.545Z,2.80
2022-08-07T19:17:00.320Z,2.55
2022-08-07T19:19:04.855Z,2.65
2022-08-07T19:22:03.953Z,2.47
2022-08-07T19:24:46.191Z,2.20
2022-08-07T19:28:57.233Z,2.55
2022-08-07T19:31:03.179Z,2.45
2022-08-07T19:33:12.722Z,2.30
2022-08-07T19:35:42.187Z,2.20
2022-08-07T19:38:17.644Z,2.20
2022-08-07T19:40:50.812Z,2.25
2022-08-07T19:43:49.135Z,2.27
2022-08-07T19:46:26.664Z,2.30
2022-08-07T19:49:07.328Z,2.40
2022-08-07T19:51:51.853Z,2.70
2022-08-07T19:54:33.034Z,2.50
2022-08-07T19:58:00.841Z,2.42
2022-08-07T20:00:02.343Z,2.30
2022-08-07T20:02:52.275Z,2.60
2022-08-07T20:05:28.130Z,2.60
2022-08-07T20:08:02.114Z,3.00
2022-08-07T20:10:51.468Z,2.60
2022-08-07T20:13:32.144Z,2.42
2022-08-07T20:16:02.048Z,2.45
2022-08-07T20:18:32.302Z,2.95
2022-08-07T20:21:02.323Z,3.00
2022-08-07T20:23:40.814Z,2.70
2022-08-07T20:26:12.970Z,3.10
2022-08-07T20:28:51.737Z,3.00
2022-08-07T20:31:21.802Z,3.00
2022-08-07T20:33:56.528Z,3.17
2022-08-07T20:36:27.469Z,2.78
2022-08-07T20:39:00.252Z,3.00
2022-08-07T20:41:38.453Z,2.88
2022-08-07T20:44:12.904Z,3.10
2022-08-07T20:46:43.909Z,3.17
2022-08-07T20:50:00.291Z,3.60
2022-08-07T20:52:07.819Z,3.38
2022-08-07T20:54:45.574Z,3.17
2022-08-07T20:57:24.799Z,3.40
2022-08-07T21:00:07.320Z,3.25
2022-08-07T21:02:58.722Z,3.45
2022-08-07T21:05:54.918Z,3.10
2022-08-07T21:09:00.919Z,3.50
2022-08-07T21:11:49.916Z,2.97
2022-08-07T21:14:33.243Z,3.00
2022-08-07T21:18:01.047Z,3.00
2022-08-07T21:20:04.668Z,3.35
2022-08-07T21:22:39.483Z,2.83
2022-08-07T21:25:15.577Z,3.30
2022-08-07T21:28:16.689Z,3.28
2022-08-07T21:31:11.053Z,2.95
2022-08-07T21:33:54.780Z,3.38
2022-08-07T21:36:31.733Z,3.55
2022-08-07T21:39:45.432Z,3.20
2022-08-07T21:42:47.150Z,2.97
2022-08-07T21:46:08.776Z,3.83
2022-08-07T21:48:29.330Z,3.70
2022-08-07T21:51:32.527Z,3.50
2022-08-07T21:54:19.728Z,3.72
2022-08-07T21:57:39.400Z,3.60
2022-08-07T22:00:22.925Z,3.42
2022-08-07T22:03:31.755Z,3.50
2022-08-07T22:06:07.561Z,3.40
2022-08-07T22:08:59.202Z,3.80
2022-08-07T22:11:30.743Z,3.90
2022-08-07T22:14:15.309Z,3.70
2022-08-07T22:16:59.939Z,3.70
2022-08-07T22:19:34.895Z,3.60
2022-08-07T22:22:29.277Z,3.75
2022-08-07T22:25:03.268Z,3.80
2022-08-07T22:28:20.285Z,3.90
2022-08-07T22:30:27.112Z,3.80
2022-08-07T22:33:13.091Z,4.20
2022-08-07T22:35:56.261Z,3.70
2022-08-07T22:38:54.295Z,3.78
2022-08-07T22:42:02.422Z,3.55
2022-08-07T22:44:21.677Z,4.00
2022-08-07T22:47:04.132Z,4.00
2022-08-07T22:50:06.690Z,3.90
2022-08-07T22:52:58.587Z,3.90
2022-08-07T22:55:47.423Z,4.00
2022-08-07T22:58:49.279Z,3.88
2022-08-07T23:01:50.009Z,4.03
2022-08-07T23:04:57.798Z,3.83
2022-08-07T23:07:42.977Z,3.70
2022-08-07T23:10:38.481Z,4.10
2022-08-07T23:13:48.517Z,3.92
2022-08-07T23:16:54.948Z,3.80
2022-08-07T23:20:19.349Z,4.00
2022-08-07T23:23:05.081Z,3.95
2022-08-07T23:25:45.853Z,4.10
2022-08-07T23:28:28.900Z,3.97
2022-08-07T23:32:48.673Z,3.60
2022-08-07T23:35:01.077Z,3.92
2022-08-07T23:38:05.178Z,4.18
2022-08-07T23:40:50.965Z,3.63
2022-08-07T23:43:38.252Z,3.85
2022-08-07T23:46:37.341Z,4.00
2022-08-07T23:49:25.333Z,4.28
2022-08-07T23:53:17.606Z,4.45
2022-08-07T23:55:51.736Z,4.43
2022-08-07T23:58:42.644Z,4.50
